Time;durP1;ratioP1;P1;durP2;ratioP2;P2;SDS_P1;SDS_P2;PMS_P1;PMS_P2;Temp;Humidity;BMP_temperature;BMP_pressure;BME280_temperature;BME280_humidity;BME280_pressure;Samples;Min_cycle;Max_cycle;Signal;HPM_P1;HPM_P2
2022/11/18 00:01:22;;;;;;;6.38;2.55;;;7.90;99.90;;;7.89;100.00;98557.16;4909769;29;20286;-79
2022/11/18 00:03:50;;;;;;;6.30;2.38;;;7.90;99.90;;;7.95;100.00;98572.91;4907457;29;20238;-80
2022/11/18 00:06:20;;;;;;;7.18;2.67;;;7.90;99.90;;;7.95;100.00;98572.91;4927487;29;20231;-79
2022/11/18 00:08:47;;;;;;;6.97;2.53;;;7.90;99.90;;;7.89;100.00;98562.44;4912347;28;20283;-79
2022/11/18 00:14:26;;;;;;;5.85;2.15;;;7.90;99.90;;;7.81;100.00;98567.78;4910603;29;20286;-79
2022/11/18 00:17:00;;;;;;;5.53;2.10;;;7.80;99.90;;;7.74;100.00;98567.81;4909972;29;20231;-79
2022/11/18 00:19:34;;;;;;;6.80;2.50;;;7.80;99.90;;;7.72;100.00;98562.56;4911591;29;20710;-79
2022/11/18 00:22:02;;;;;;;9.18;3.40;;;7.70;99.90;;;7.70;100.00;98562.56;4913309;28;20227;-81
2022/11/18 00:24:30;;;;;;;7.82;2.72;;;7.70;99.90;;;7.67;100.00;98567.88;4910339;29;20231;-79
2022/11/18 00:26:57;;;;;;;7.95;2.78;;;7.70;99.90;;;7.74;100.00;98575.69;4912149;29;20230;-80
2022/11/18 00:29:27;;;;;;;7.72;2.63;;;7.70;99.90;;;7.66;100.00;98565.25;4912243;28;20318;-82
2022/11/18 00:31:55;;;;;;;5.53;1.98;;;7.70;99.90;;;7.66;100.00;98567.88;4917651;28;20450;-78
2022/11/18 00:34:23;;;;;;;7.68;2.67;;;7.70;99.90;;;7.65;100.00;98574.03;4913855;28;20600;-79
2022/11/18 00:36:50;;;;;;;7.75;2.72;;;7.60;99.90;;;7.66;100.00;98576.66;4912104;28;20228;-77
2022/11/18 00:39:18;;;;;;;8.07;2.70;;;7.60;99.90;;;7.68;100.00;98582.78;4913034;29;20231;-78
2022/11/18 00:44:46;;;;;;;7.50;2.58;;;7.70;99.90;;;7.78;100.00;98594.06;4878671;28;20266;-76
2022/11/18 00:47:13;;;;;;;6.15;2.30;;;7.80;99.90;;;7.84;100.00;98601.06;4913704;29;20230;-78
2022/11/18 00:49:40;;;;;;;6.13;2.22;;;7.80;99.90;;;7.88;100.00;98603.66;4911146;28;20239;-78
2022/11/18 00:52:08;;;;;;;8.40;2.92;;;7.80;99.90;;;7.90;100.00;98598.38;4911234;28;20334;-77
2022/11/18 00:54:35;;;;;;;6.90;2.60;;;7.90;99.90;;;7.86;100.00;98594.91;4912723;29;20271;-77
2022/11/18 00:57:04;;;;;;;6.18;2.33;;;7.80;99.90;;;7.88;100.00;98592.25;4911846;28;20299;-77
2022/11/18 00:59:31;;;;;;;7.82;2.90;;;7.80;99.90;;;7.88;100.00;98597.53;4913756;28;20235;-77
2022/11/18 01:01:58;;;;;;;6.00;2.33;;;7.90;99.90;;;7.90;100.00;98603.66;4911784;28;20259;-79
2022/11/18 01:04:25;;;;;;;7.32;2.75;;;7.90;99.90;;;7.92;100.00;98610.63;4909419;29;20239;-77
2022/11/18 01:06:52;;;;;;;5.40;2.00;;;7.90;99.90;;;7.93;100.00;98620.28;4912523;29;20238;-78
2022/11/18 01:09:19;;;;;;;5.55;2.03;;;7.90;99.90;;;7.93;100.00;98620.28;4910212;29;20262;-78
2022/11/18 01:14:32;;;;;;;7.88;2.90;;;7.90;99.90;;;7.92;100.00;98621.16;4908954;29;20247;-77
2022/11/18 01:16:59;;;;;;;4.22;1.70;;;7.90;99.90;;;7.94;100.00;98622.03;4910670;29;20266;-77
2022/11/18 01:19:26;;;;;;;6.65;2.53;;;7.90;99.90;;;7.92;100.00;98623.81;4906914;29;20244;-77
2022/11/18 01:21:55;;;;;;;6.45;2.60;;;7.90;99.90;;;7.90;100.00;98624.69;4907630;29;20231;-78
2022/11/18 01:24:22;;;;;;;9.75;3.47;;;7.90;99.90;;;7.91;100.00;98637.84;4910400;29;20242;-78
2022/11/18 01:26:49;;;;;;;7.15;2.58;;;7.90;99.90;;;7.94;100.00;98639.56;4910321;29;20235;-79
2022/11/18 01:29:16;;;;;;;7.07;2.45;;;7.90;99.90;;;7.92;100.00;98650.13;4911305;29;20302;-77
2022/11/18 01:31:43;;;;;;;6.93;2.45;;;7.90;99.90;;;7.90;100.00;98638.72;4909254;29;20239;-77
2022/11/18 01:34:30;;;;;;;6.28;2.30;;;7.90;99.90;;;7.88;100.00;98637.88;4906647;29;20238;-78
2022/11/18 01:36:58;;;;;;;7.40;2.63;;;7.90;99.90;;;7.86;100.00;98636.16;4910826;29;20238;-77
2022/11/18 01:39:25;;;;;;;5.45;1.98;;;7.90;99.90;;;7.86;100.00;98637.00;4909416;29;20235;-78
2022/11/18 01:41:52;;;;;;;8.63;3.13;;;7.80;99.90;;;7.83;100.00;98636.16;4907300;29;20298;-79
2022/11/18 01:45:03;;;;;;;4.75;2.35;;;7.80;99.90;;;7.77;100.00;98634.44;4914618;28;20227;-78
2022/11/18 01:47:40;;;;;;;7.63;2.85;;;7.80;99.90;;;7.77;100.00;98637.06;4909347;29;20235;-77
2022/11/18 01:50:08;;;;;;;6.13;2.20;;;7.80;99.90;;;7.76;100.00;98644.97;4908984;29;20269;-77
2022/11/18 01:52:37;;;;;;;6.50;2.33;;;7.80;99.90;;;7.82;100.00;98650.22;4906957;29;20354;-77
2022/11/18 01:55:14;;;;;;;7.13;2.78;;;7.80;99.90;;;7.84;100.00;98648.44;4907332;29;20315;-77
2022/11/18 01:57:42;;;;;;;4.25;1.67;;;7.80;99.90;;;7.87;100.00;98653.69;4904269;29;20231;-77
2022/11/18 02:00:11;;;;;;;6.45;2.53;;;7.90;99.90;;;7.93;100.00;98657.13;4906938;29;20295;-78
2022/11/18 02:02:38;;;;;;;7.10;2.63;;;7.90;99.90;;;7.97;100.00;98661.47;4912000;29;20297;-77
2022/11/18 02:05:09;;;;;;;7.00;2.60;;;7.90;99.90;;;7.98;100.00;98664.97;4911437;28;20242;-77
2022/11/18 02:07:41;;;;;;;7.97;2.88;;;8.00;99.90;;;7.99;100.00;98662.34;4909368;29;20287;-77
2022/11/18 02:10:18;;;;;;;7.70;2.90;;;8.00;99.90;;;7.98;100.00;98667.63;4907896;29;20302;-77
2022/11/18 02:12:45;;;;;;;10.32;3.63;;;8.00;99.90;;;8.01;100.00;98667.59;4907470;28;20234;-78
2022/11/18 02:15:13;;;;;;;5.85;2.40;;;8.00;99.90;;;7.98;100.00;98665.84;4900557;29;20238;-78
2022/11/18 02:18:22;;;;;;;8.43;3.10;;;8.00;99.90;;;7.95;100.00;98663.25;4912212;29;20314;-78
2022/11/18 02:20:55;;;;;;;7.45;2.67;;;8.00;99.90;;;7.96;100.00;98666.75;4898010;29;20263;-78
2022/11/18 02:23:49;;;;;;;4.65;1.80;;;8.00;99.90;;;7.98;100.00;98664.97;4904463;29;20293;-78
2022/11/18 02:27:01;;;;;;;6.55;2.30;;;7.30;99.90;;;7.97;100.00;98674.63;4912090;29;20707;-78
2022/11/18 02:29:49;;;;;;;6.90;2.75;;;8.00;99.90;;;7.98;100.00;98679.00;4910426;28;20294;-78
2022/11/18 02:32:23;;;;;;;5.05;1.90;;;8.00;99.90;;;8.00;100.00;98681.63;4925263;29;20273;-80
2022/11/18 02:35:12;;;;;;;5.70;2.03;;;8.00;99.90;;;8.01;100.00;98683.38;4908401;29;20309;-79
2022/11/18 02:37:51;;;;;;;7.07;2.58;;;8.00;99.90;;;8.01;100.00;98689.53;4884027;29;20310;-79
2022/11/18 02:40:31;;;;;;;7.88;2.85;;;8.00;99.90;;;8.05;100.00;98690.38;4904594;28;20341;-79
2022/11/18 02:43:31;;;;;;;5.88;2.13;;;8.00;99.90;;;8.06;100.00;98702.63;4908544;29;20241;-77
2022/11/18 02:46:06;;;;;;;6.65;2.35;;;8.00;99.90;;;8.10;100.00;98700.84;4909164;29;20227;-78
2022/11/18 02:48:39;;;;;;;13.40;4.65;;;8.10;99.90;;;8.16;100.00;98708.69;4908160;29;20340;-78
2022/11/18 02:51:08;;;;;;;7.53;2.65;;;8.10;99.90;;;8.17;100.00;98713.94;4921777;29;20237;-79
2022/11/18 02:53:39;;;;;;;7.80;2.88;;;8.10;99.90;;;8.16;100.00;98709.56;4902864;28;20323;-78
2022/11/18 02:56:08;;;;;;;7.82;2.88;;;8.10;99.90;;;8.19;100.00;98714.81;4918175;28;20287;-78
2022/11/18 02:58:35;;;;;;;10.10;3.35;;;8.20;99.90;;;8.17;100.00;98720.97;4901354;29;20294;-79
2022/11/18 03:01:02;;;;;;;6.07;2.20;;;8.20;99.90;;;8.17;100.00;98720.97;4913296;28;20257;-79
2022/11/18 03:03:35;;;;;;;7.28;2.50;;;8.20;99.90;;;8.17;100.00;98720.97;4908406;29;20236;-78
2022/11/18 03:06:35;;;;;;;4.95;1.85;;;8.20;99.90;;;8.17;100.00;98729.75;4908133;29;20243;-77
2022/11/18 03:09:21;;;;;;;8.68;3.17;;;8.20;99.90;;;8.16;100.00;98728.00;4906097;29;20231;-78
2022/11/18 03:12:04;;;;;;;8.20;2.95;;;8.10;99.90;;;8.19;100.00;98733.25;4899268;29;20238;-78
2022/11/18 03:15:08;;;;;;;6.47;3.05;;;8.20;99.90;;;8.21;100.00;98734.09;4908680;29;20242;-78
2022/11/18 03:18:02;;;;;;;5.75;2.13;;;8.20;99.90;;;8.17;100.00;98734.13;4908163;29;20735;-79
2022/11/18 03:20:37;;;;;;;6.82;2.35;;;8.20;99.90;;;8.19;100.00;98733.25;4895428;29;20231;-78
2022/11/18 03:23:37;;;;;;;9.05;3.20;;;8.20;99.90;;;8.22;100.00;98741.13;4909006;29;20309;-78
2022/11/18 03:26:29;;;;;;;7.95;2.72;;;8.20;99.90;;;8.23;100.00;98748.13;4910301;29;20286;-78
2022/11/18 03:29:06;;;;;;;8.38;2.97;;;8.20;99.90;;;8.24;100.00;98746.38;4911228;28;20230;-80
2022/11/18 03:31:40;;;;;;;9.00;3.00;;;8.20;99.90;;;8.30;100.00;98754.22;4906011;29;20234;-77
2022/11/18 03:34:30;;;;;;;8.48;3.08;;;8.30;99.90;;;8.31;100.00;98755.97;4919655;29;20301;-78
2022/11/18 03:37:01;;;;;;;10.30;3.55;;;8.30;99.90;;;8.29;100.00;98758.59;4906129;29;20719;-79
2022/11/18 03:39:41;;;;;;;9.60;3.25;;;8.30;99.90;;;8.36;100.00;98755.94;4918508;28;20255;-79
2022/11/18 03:42:19;;;;;;;7.28;2.47;;;8.30;99.90;;;8.37;100.00;98766.47;4902175;29;21108;-78
2022/11/18 03:44:53;;;;;;;9.10;2.97;;;8.40;99.90;;;8.39;100.00;98767.31;4918882;29;20236;-79
2022/11/18 03:47:32;;;;;;;5.78;2.05;;;8.40;99.90;;;8.42;100.00;98776.97;4888592;29;20255;-78
2022/11/18 03:50:11;;;;;;;7.75;2.83;;;8.40;99.90;;;8.43;100.00;98773.44;4905021;29;20294;-78
2022/11/18 03:52:39;;;;;;;8.40;3.25;;;8.40;99.90;;;8.45;100.00;98780.44;4889929;29;20288;-78
2022/11/18 03:55:15;;;;;;;8.52;2.90;;;8.40;99.90;;;8.47;100.00;98785.69;4907853;29;20298;-78
2022/11/18 03:58:01;;;;;;;7.70;2.70;;;8.40;99.90;;;8.49;100.00;98786.56;4922038;29;20242;-78
2022/11/18 04:00:38;;;;;;;8.55;2.97;;;8.50;99.90;;;8.52;100.00;98792.69;4909509;29;20308;-78
2022/11/18 04:03:05;;;;;;;7.75;2.70;;;8.50;99.90;;;8.50;100.00;98797.09;4893592;29;20218;-79
2022/11/18 04:05:38;;;;;;;8.25;3.00;;;8.50;99.90;;;8.54;100.00;98805.84;4910617;29;20273;-78
2022/11/18 04:08:29;;;;;;;7.30;2.78;;;8.50;99.90;;;8.60;100.00;98811.03;4908175;29;20255;-77
2022/11/18 04:11:09;;;;;;;9.23;3.25;;;8.60;99.90;;;8.56;100.00;98810.19;4908707;29;20579;-79
2022/11/18 04:13:37;;;;;;;7.03;2.58;;;8.60;99.90;;;8.52;100.00;98813.75;4911135;29;20235;-79
2022/11/18 04:16:08;;;;;;;6.00;2.10;;;8.60;99.90;;;8.55;100.00;98816.34;4914100;29;20224;-78
2022/11/18 04:18:35;;;;;;;8.73;2.88;;;8.60;99.90;;;8.62;100.00;98820.69;4911905;29;20239;-79
2022/11/18 04:21:03;;;;;;;7.03;2.67;;;8.70;99.90;;;8.62;100.00;98812.78;4913310;29;20307;-79
2022/11/18 04:23:30;;;;;;;6.85;2.67;;;8.70;99.90;;;8.66;100.00;98821.53;4911255;29;20396;-80
2022/11/18 04:25:56;;;;;;;9.48;3.35;;;8.70;99.90;;;8.63;100.00;98830.34;4911505;29;20263;-78
2022/11/18 04:28:24;;;;;;;11.05;3.63;;;8.60;99.90;;;8.64;100.00;98828.56;4910940;29;20310;-78
2022/11/18 04:30:51;;;;;;;5.85;2.22;;;8.70;99.90;;;8.62;100.00;98823.31;4912972;29;20235;-78
2022/11/18 04:33:18;;;;;;;6.25;2.30;;;8.60;99.90;;;8.62;100.00;98836.50;4912790;29;20223;-78
2022/11/18 04:35:46;;;;;;;6.15;2.33;;;8.60;99.90;;;8.64;100.00;98825.94;4908670;29;20223;-80
2022/11/18 04:38:13;;;;;;;5.05;1.90;;;8.60;99.90;;;8.58;100.00;98826.88;4910949;29;20234;-78
2022/11/18 04:40:47;;;;;;;6.10;2.22;;;8.60;99.90;;;8.57;100.00;98825.13;4923785;29;20302;-78
2022/11/18 04:43:14;;;;;;;4.55;1.77;;;8.60;99.90;;;8.49;100.00;98818.16;4913774;29;20291;-78
2022/11/18 04:45:41;;;;;;;5.03;1.85;;;8.50;99.90;;;8.46;100.00;98815.56;4912423;29;20322;-79
2022/11/18 04:48:08;;;;;;;4.70;1.80;;;8.50;99.90;;;8.45;100.00;98821.72;4913391;29;20242;-78
2022/11/18 04:50:35;;;;;;;7.22;2.78;;;8.50;99.90;;;8.46;100.00;98816.44;4908958;29;20258;-79
2022/11/18 04:53:02;;;;;;;5.07;1.95;;;8.50;99.90;;;8.47;100.00;98826.09;4914812;29;20334;-78
2022/11/18 04:55:29;;;;;;;7.18;2.70;;;8.50;99.90;;;8.44;100.00;98819.97;4910179;29;20768;-80
2022/11/18 04:57:56;;;;;;;7.28;2.67;;;8.40;99.90;;;8.40;100.00;98812.97;4912070;29;20238;-78
2022/11/18 05:00:24;;;;;;;6.20;2.40;;;8.40;99.90;;;8.36;100.00;98821.78;4911643;28;20288;-78
2022/11/18 05:02:51;;;;;;;6.82;2.55;;;8.40;99.90;;;8.36;100.00;98814.75;4905569;29;20371;-77
2022/11/18 05:05:18;;;;;;;5.53;2.00;;;8.30;99.90;;;8.34;100.00;98816.53;4912718;29;20275;-77
2022/11/18 05:07:45;;;;;;;5.47;2.20;;;8.40;99.90;;;8.31;100.00;98814.78;4910188;29;20258;-76
2022/11/18 05:10:12;;;;;;;3.65;1.50;;;8.30;99.90;;;8.34;100.00;98827.94;4911068;29;20242;-77
2022/11/18 05:12:48;;;;;;;4.30;1.73;;;8.40;99.90;;;8.32;100.00;98823.53;4910870;29;20309;-77
2022/11/18 05:15:17;;;;;;;5.13;1.90;;;8.30;99.90;;;8.32;100.00;98826.19;4908873;29;20241;-77
2022/11/18 05:17:45;;;;;;;4.78;1.80;;;8.30;99.90;;;8.25;100.00;98825.34;4890959;29;20223;-77
2022/11/18 05:20:12;;;;;;;4.55;1.88;;;8.30;99.90;;;8.22;100.00;98813.97;4908222;29;20294;-78
2022/11/18 05:22:40;;;;;;;4.40;1.70;;;8.30;99.90;;;8.17;100.00;98821.03;4910337;29;20273;-77
2022/11/18 05:25:07;;;;;;;6.65;2.35;;;8.20;99.90;;;8.18;100.00;98823.66;4909958;29;20235;-77
2022/11/18 05:27:34;;;;;;;4.95;1.95;;;8.20;99.90;;;8.16;100.00;98814.88;4906121;29;20227;-78
2022/11/18 05:30:02;;;;;;;6.40;2.30;;;8.20;99.90;;;8.11;100.00;98814.03;4911843;29;20231;-76
2022/11/18 05:32:29;;;;;;;5.22;1.92;;;8.20;99.90;;;8.06;100.00;98810.56;4913219;28;20286;-77
2022/11/18 05:34:56;;;;;;;5.63;2.05;;;8.10;99.90;;;8.04;100.00;98814.97;4914754;29;20235;-78
2022/11/18 05:37:24;;;;;;;5.97;2.15;;;8.10;99.90;;;8.00;100.00;98811.50;4912875;29;20306;-78
2022/11/18 05:39:51;;;;;;;5.75;2.10;;;8.00;99.90;;;7.97;100.00;98808.88;4914983;29;20325;-80
2022/11/18 05:45:04;;;;;;;6.72;2.38;;;8.00;99.90;;;7.90;100.00;98816.81;4910487;29;20676;-79
2022/11/18 05:47:58;;;;;;;6.05;2.25;;;7.90;99.90;;;7.91;100.00;98818.56;4919013;28;20298;-80
2022/11/18 05:50:18;;;;;;;5.88;2.33;;;7.90;99.90;;;7.86;100.00;98820.34;4898227;29;20242;-78
2022/11/18 05:52:47;;;;;;;7.60;2.72;;;7.60;99.90;;;7.86;100.00;98822.97;4899930;29;20258;-78
2022/11/18 05:55:16;;;;;;;7.68;2.80;;;7.90;99.90;;;7.84;100.00;98830.00;4908216;29;20245;-78
2022/11/18 05:57:43;;;;;;;9.38;3.33;;;7.90;99.90;;;7.83;100.00;98833.53;4903285;29;20231;-77
2022/11/18 06:00:11;;;;;;;8.65;2.95;;;7.80;99.90;;;7.81;100.00;98841.44;4904306;28;20250;-77
2022/11/18 06:02:41;;;;;;;7.07;2.58;;;7.80;99.90;;;7.76;100.00;98839.69;4908398;28;20712;-79
2022/11/18 06:05:10;;;;;;;8.65;3.03;;;7.80;99.90;;;7.76;100.00;98850.19;4916176;29;20267;-84
2022/11/18 06:07:43;;;;;;;6.97;2.55;;;7.80;99.90;;;7.71;100.00;98858.13;4907058;29;20260;-78
2022/11/18 06:10:21;;;;;;;10.30;3.50;;;7.70;99.90;;;7.71;100.00;98871.28;4904690;29;20310;-80
2022/11/18 06:12:52;;;;;;;5.05;1.80;;;7.70;99.90;;;7.69;100.00;98873.03;4915034;29;20239;-79
2022/11/18 06:15:32;;;;;;;5.03;1.95;;;7.70;99.90;;;7.71;100.00;98877.41;4922933;29;20231;-79
2022/11/18 06:18:07;;;;;;;5.18;1.95;;;7.80;99.90;;;7.69;100.00;98880.94;4909131;29;20325;-80
2022/11/18 06:20:37;;;;;;;6.65;2.25;;;7.70;99.90;;;7.70;100.00;98894.06;4907325;29;20265;-78
2022/11/18 06:23:04;;;;;;;6.90;2.55;;;7.80;99.90;;;8.00;100.00;98898.34;4903466;29;20243;-79
2022/11/18 06:25:32;;;;;;;6.47;2.40;;;8.00;99.90;;;7.97;100.00;98889.59;4899326;29;20238;-78
2022/11/18 06:28:01;;;;;;;6.95;2.47;;;8.00;99.90;;;7.95;100.00;98894.88;4905229;29;20325;-78
2022/11/18 06:30:28;;;;;;;7.68;2.65;;;8.00;99.90;;;7.99;100.00;98890.47;4902584;29;20665;-79
2022/11/18 06:32:55;;;;;;;8.40;2.88;;;8.00;99.90;;;7.97;100.00;98890.47;4910034;29;20706;-79
2022/11/18 06:35:22;;;;;;;8.02;2.80;;;8.00;99.90;;;8.06;100.00;98894.81;4910526;29;20604;-79
2022/11/18 06:37:49;;;;;;;4.20;1.70;;;8.10;99.90;;;8.08;100.00;98892.16;4910818;29;20270;-79
2022/11/18 06:40:17;;;;;;;4.93;1.95;;;8.10;99.90;;;8.05;100.00;98885.16;4910777;29;20234;-80
2022/11/18 06:45:29;;;;;;;4.82;1.80;;;8.00;99.90;;;7.98;100.00;98894.84;4904638;29;20231;-78
2022/11/18 06:48:01;;;;;;;4.40;1.77;;;8.00;99.90;;;8.05;100.00;98900.97;4910295;29;20234;-79
2022/11/18 06:50:29;;;;;;;6.68;2.42;;;8.10;99.90;;;8.11;100.00;98902.69;4908414;29;20231;-80
2022/11/18 06:52:59;;;;;;;5.55;2.15;;;8.10;99.90;;;8.09;100.00;98904.44;4908922;29;20268;-79
2022/11/18 06:55:26;;;;;;;6.82;2.70;;;8.10;99.90;;;8.09;100.00;98907.09;4909540;29;20230;-79
2022/11/18 06:57:55;;;;;;;4.43;1.83;;;8.10;99.90;;;8.01;100.00;98909.75;4910773;29;20269;-79
2022/11/18 07:00:22;;;;;;;4.50;1.85;;;8.00;99.90;;;8.11;100.00;98916.72;4909663;28;20290;-79
2022/11/18 07:02:49;;;;;;;5.47;2.08;;;8.10;99.90;;;8.18;100.00;98922.81;4911404;29;20262;-79
2022/11/18 07:05:16;;;;;;;3.13;1.48;;;8.20;99.90;;;8.25;100.00;98930.69;4910411;29;20246;-79
2022/11/18 07:07:43;;;;;;;3.80;1.58;;;8.20;99.90;;;8.50;100.00;98951.63;4912645;28;20321;-79
2022/11/18 07:10:11;;;;;;;4.75;1.85;;;8.40;99.90;;;8.64;100.00;98953.28;4910887;29;20235;-78
2022/11/18 07:12:38;;;;;;;4.78;1.90;;;8.60;99.90;;;8.54;100.00;98943.72;4912403;29;20242;-78
2022/11/18 07:15:06;;;;;;;4.82;1.95;;;8.60;99.90;;;8.40;100.00;98950.81;4911987;29;20295;-78
2022/11/18 07:17:33;;;;;;;6.50;2.50;;;8.40;99.90;;;8.36;100.00;98940.31;4910535;29;20255;-78
2022/11/18 07:20:00;;;;;;;4.57;1.70;;;8.40;99.90;;;8.32;100.00;98944.69;4911028;29;20250;-78
2022/11/18 07:22:27;;;;;;;5.38;1.95;;;8.40;99.90;;;8.36;100.00;98958.75;4910412;29;20239;-78
2022/11/18 07:24:54;;;;;;;6.57;2.42;;;8.30;99.90;;;8.31;100.00;98964.88;4911583;29;20243;-79
2022/11/18 07:27:21;;;;;;;4.38;1.85;;;8.30;99.90;;;8.34;100.00;98964.91;4912739;29;20279;-78
2022/11/18 07:29:48;;;;;;;6.35;2.42;;;8.30;99.90;;;8.19;100.00;98956.19;4926990;29;20302;-80
2022/11/18 07:32:15;;;;;;;4.35;1.75;;;8.30;99.90;;;8.13;100.00;98966.75;4916190;29;20294;-79
2022/11/18 07:34:43;;;;;;;4.32;1.65;;;8.20;99.90;;;8.13;100.00;98967.63;4915273;29;20313;-80
2022/11/18 07:37:10;;;;;;;4.57;1.90;;;8.20;99.90;;;8.12;100.00;98981.66;4915747;29;20231;-80
2022/11/18 07:39:38;;;;;;;3.63;1.77;;;8.10;99.90;;;8.10;100.00;98982.53;4914797;29;20243;-79
2022/11/18 07:42:05;;;;;;;3.63;1.55;;;8.10;99.90;;;8.15;100.00;98997.44;4915425;29;20254;-80
2022/11/18 07:44:32;;;;;;;6.55;2.55;;;8.20;99.90;;;8.15;100.00;99000.06;4913519;29;20251;-79
2022/11/18 07:46:59;;;;;;;5.88;2.65;;;8.20;99.90;;;8.19;100.00;99007.09;4913730;29;20239;-81
2022/11/18 07:49:26;;;;;;;3.30;1.70;;;8.20;99.90;;;8.28;100.00;99020.22;4914969;29;20239;-78
2022/11/18 07:51:53;;;;;;;4.80;1.92;;;8.20;99.90;;;8.34;100.00;99020.22;4905828;29;20231;-78
2022/11/18 07:54:20;;;;;;;3.97;1.80;;;8.30;99.90;;;8.19;100.00;99019.38;4911221;29;20235;-78
2022/11/18 07:56:47;;;;;;;6.30;2.53;;;8.20;99.90;;;8.12;100.00;99017.66;4912642;29;20282;-78
2022/11/18 07:59:14;;;;;;;3.97;1.70;;;8.20;99.90;;;8.11;100.00;99023.78;4910990;29;20703;-78
2022/11/18 08:01:42;;;;;;;3.83;1.70;;;8.10;99.90;;;8.12;100.00;99028.19;4914228;28;20294;-78
2022/11/18 08:04:11;;;;;;;3.72;1.67;;;8.10;99.90;;;8.09;100.00;99029.06;4907839;29;20240;-78
2022/11/18 08:06:39;;;;;;;5.53;2.03;;;8.10;99.90;;;8.12;100.00;99042.22;4915737;29;20303;-79
2022/11/18 08:09:07;;;;;;;6.70;2.45;;;8.10;99.90;;;8.12;100.00;99030.81;4914089;29;20242;-78
2022/11/18 08:11:35;;;;;;;7.10;2.92;;;8.10;99.90;;;8.12;100.00;99050.13;4907793;29;20290;-80
2022/11/18 08:14:02;;;;;;;5.40;2.17;;;8.10;99.90;;;8.13;100.00;99051.88;4919369;28;20230;-78
2022/11/18 08:16:29;;;;;;;5.03;2.10;;;8.10;99.90;;;8.15;100.00;99065.91;4909523;29;20234;-78
2022/11/18 08:18:59;;;;;;;8.15;3.15;;;8.20;99.90;;;8.17;100.00;99060.63;4913759;29;20704;-76
2022/11/18 08:21:26;;;;;;;6.20;2.50;;;8.20;99.90;;;8.20;100.00;99068.53;4909076;29;20280;-76
2022/11/18 08:23:57;;;;;;;6.43;2.58;;;8.20;99.90;;;8.22;100.00;99074.66;4913579;28;20664;-76
2022/11/18 08:26:25;;;;;;;6.47;2.50;;;8.20;99.90;;;8.26;100.00;99081.66;4913568;29;20334;-79
2022/11/18 08:28:53;;;;;;;6.85;2.65;;;8.30;99.90;;;8.33;100.00;99089.56;4910804;29;20267;-79
2022/11/18 08:31:24;;;;;;;5.32;2.20;;;8.30;99.90;;;8.38;100.00;99089.56;4899563;29;20247;-78
2022/11/18 08:34:00;;;;;;;6.00;2.35;;;8.40;99.90;;;8.42;100.00;99086.03;4903737;29;20235;-79
2022/11/18 08:36:31;;;;;;;9.82;3.65;;;8.40;99.90;;;8.46;100.00;99090.41;4907029;29;20231;-78
2022/11/18 08:39:02;;;;;;;7.35;2.67;;;8.40;99.90;;;8.51;100.00;99082.47;4913388;28;20322;-78
2022/11/18 08:41:39;;;;;;;5.00;2.30;;;8.50;99.90;;;8.55;100.00;99097.38;4909402;29;20239;-78
2022/11/18 08:44:11;;;;;;;3.15;1.65;;;8.50;99.90;;;8.59;100.00;99092.09;4910106;29;20377;-78
2022/11/18 08:46:39;;;;;;;6.03;2.50;;;8.60;99.90;;;8.68;100.00;99096.44;4912313;29;20270;-78
2022/11/18 08:49:06;;;;;;;6.95;2.95;;;8.70;99.90;;;8.75;100.00;99103.44;4908225;28;20300;-78
2022/11/18 08:51:33;;;;;;;3.45;1.92;;;8.70;99.90;;;8.83;100.00;99116.59;4912574;29;20226;-78
2022/11/18 08:54:00;;;;;;;4.85;2.08;;;8.80;99.90;;;8.87;100.00;99116.56;4912324;29;20321;-78
2022/11/18 08:56:27;;;;;;;2.08;1.42;;;8.80;99.90;;;8.93;100.00;99116.53;4906763;29;20318;-78
2022/11/18 08:58:55;;;;;;;4.35;2.00;;;8.90;99.90;;;9.02;100.00;99120.88;4906774;29;20284;-78
2022/11/18 09:01:22;;;;;;;3.60;1.95;;;9.00;99.90;;;9.13;100.00;99127.00;4908078;29;20286;-78
2022/11/18 09:03:50;;;;;;;2.75;1.33;;;9.00;99.90;;;9.28;100.00;99137.44;4913222;29;20241;-78
2022/11/18 09:06:21;;;;;;;3.22;1.60;;;9.20;99.90;;;9.38;100.00;99143.53;4911888;29;20399;-78
2022/11/18 09:08:49;;;;;;;5.25;2.42;;;9.30;99.90;;;9.45;100.00;99145.25;4916751;28;20231;-78
2022/11/18 09:11:20;;;;;;;0.10;0.10;;;9.40;99.90;;;9.50;100.00;99140.81;4907287;29;20239;-78
2022/11/18 09:13:51;;;;;;;0.10;0.10;;;9.50;99.90;;;9.47;100.00;99127.63;4907739;29;20231;-78
2022/11/18 09:16:38;;;;;;;0.68;0.55;;;9.50;99.90;;;9.59;100.00;99124.91;4907128;28;20279;-78
2022/11/18 09:19:05;;;;;;;1.83;1.40;;;9.50;99.90;;;9.65;100.00;99134.53;4920298;28;20244;-77
2022/11/18 09:21:52;;;;;;;1.80;1.42;;;9.60;99.90;;;9.71;100.00;99126.56;4907002;28;20235;-78
2022/11/18 09:24:22;;;;;;;2.03;1.33;;;9.60;99.90;;;9.81;100.00;99127.38;4904531;29;20238;-78
2022/11/18 09:26:50;;;;;;;1.92;1.45;;;9.70;99.90;;;9.81;100.00;99122.97;4897048;29;20315;-78
2022/11/18 09:29:17;;;;;;;5.18;2.97;;;9.80;99.90;;;9.84;100.00;99117.66;4888537;29;20239;-78
2022/11/18 09:31:45;;;;;;;2.88;1.85;;;9.70;99.90;;;9.87;100.00;99122.91;4905205;28;20234;-77
2022/11/18 09:34:12;;;;;;;1.55;1.10;;;9.30;99.90;;;9.90;100.00;99114.94;4911217;29;20246;-80
2022/11/18 09:36:39;;;;;;;2.80;1.80;;;9.90;99.90;;;9.97;100.00;99134.25;4906225;29;20238;-79
2022/11/18 09:39:06;;;;;;;2.30;1.52;;;9.90;99.90;;;9.98;100.00;99122.81;4906385;29;20239;-77
2022/11/18 09:41:43;;;;;;;3.13;1.70;;;9.90;99.90;;;10.03;100.00;99117.47;4901831;29;20330;-77
2022/11/18 09:44:56;;;;;;;2.30;1.58;;;10.00;99.90;;;10.20;100.00;99136.72;4904807;29;20298;-77
2022/11/18 09:47:33;;;;;;;1.52;1.10;;;10.10;99.90;;;10.28;100.00;99145.44;4903651;29;20310;-77
2022/11/18 09:50:13;;;;;;;1.45;1.10;;;10.20;99.90;;;10.21;100.00;99136.69;4901489;29;20280;-78
2022/11/18 09:53:16;;;;;;;1.35;1.02;;;10.20;99.90;;;10.27;100.00;99126.06;4897585;29;20471;-77
2022/11/18 09:55:44;;;;;;;1.00;0.80;;;10.20;99.90;;;10.19;100.00;99114.66;4914819;29;20263;-77
2022/11/18 09:58:35;;;;;;;2.28;1.33;;;10.20;99.90;;;10.10;100.00;99111.25;4907364;29;20246;-77
2022/11/18 10:01:12;;;;;;;8.55;3.33;;;10.10;99.90;;;10.13;100.00;99119.13;4900661;29;20238;-78
2022/11/18 10:03:40;;;;;;;1.98;1.38;;;10.00;99.90;;;10.08;100.00;99111.25;4907373;29;20304;-77
2022/11/18 10:06:10;;;;;;;2.58;1.42;;;10.10;99.90;;;10.14;100.00;99119.13;4906562;29;20238;-77
2022/11/18 10:09:14;;;;;;;2.38;1.55;;;10.10;99.90;;;10.16;100.00;99117.34;4906055;29;20234;-77
2022/11/18 10:12:14;;;;;;;2.30;1.58;;;10.10;99.90;;;10.24;100.00;99130.50;4903489;29;20246;-77
2022/11/18 10:14:50;;;;;;;1.08;0.95;;;10.10;99.90;;;10.24;100.00;99131.38;4911773;28;20242;-78
2022/11/18 10:17:32;;;;;;;1.20;0.98;;;10.20;99.90;;;10.30;100.00;99130.44;4907754;29;20313;-78
2022/11/18 10:20:37;;;;;;;2.58;1.58;;;10.20;99.90;;;10.36;100.00;99146.22;4925472;28;20250;-77
2022/11/18 10:23:16;;;;;;;3.25;1.73;;;10.30;99.90;;;10.41;100.00;99152.38;4914950;29;20234;-78
2022/11/18 10:25:43;;;;;;;1.75;1.40;;;10.30;99.90;;;10.37;100.00;99137.41;4901827;29;20231;-77
2022/11/18 10:28:22;;;;;;;2.75;2.15;;;10.40;99.90;;;10.43;100.00;99145.28;4904900;28;20252;-77
2022/11/18 10:30:50;;;;;;;2.00;1.30;;;10.40;99.90;;;10.53;100.00;99146.94;4904522;29;20684;-78
2022/11/18 10:33:26;;;;;;;1.60;1.30;;;10.50;99.90;;;10.53;100.00;99149.59;4903998;29;20640;-77
2022/11/18 10:36:11;;;;;;;3.38;1.80;;;10.50;99.90;;;10.50;100.00;99141.69;4884131;29;20373;-77
2022/11/18 10:38:39;;;;;;;1.88;1.40;;;10.50;99.90;;;10.53;100.00;99144.31;4902088;28;20246;-78
2022/11/18 10:41:19;;;;;;;1.38;1.15;;;10.40;99.90;;;10.65;100.00;99143.28;4901548;29;20350;-77
2022/11/18 10:43:52;;;;;;;1.55;1.15;;;10.50;99.90;;;10.72;100.00;99141.44;4890902;29;20231;-77
2022/11/18 10:46:28;;;;;;;1.63;1.30;;;10.60;99.90;;;10.82;100.00;99146.59;4906513;28;20584;-80
2022/11/18 10:49:10;;;;;;;3.70;1.77;;;10.70;99.90;;;10.80;100.00;99129.88;4911010;29;20246;-79
2022/11/18 10:52:05;;;;;;;4.28;2.05;;;10.80;99.90;;;10.83;100.00;99121.91;4913252;28;20227;-79
2022/11/18 10:54:32;;;;;;;2.72;1.60;;;10.80;99.90;;;10.90;100.00;99138.56;4908463;29;20654;-80
2022/11/18 10:57:26;;;;;;;8.57;3.30;;;10.80;99.90;;;10.99;100.00;99137.56;4917888;29;20227;-78
2022/11/18 10:59:57;;;;;;;3.25;1.92;;;11.00;99.90;;;11.07;100.00;99123.34;4899305;29;20231;-79
2022/11/18 11:02:29;;;;;;;5.43;2.63;;;11.00;99.90;;;11.31;100.00;99126.53;4890087;29;20246;-78